MA29 weather

Camp Edwards Heliport
Bourne, Massachusetts, United States

Public forecast

Using degrees Fahrenheit for public forecast. Weather courtesy of forecast.io.

METAR (pilot weather report)

Closest report is Cape Cod Coast Guard Air Station, 2.1 nm (3.9 km) ESE. Retrieved 2019/07/20 14:35 UTC (17 minutes ago):

KFMH 201435Z 27010KT 10SM CLR 31/25 A2982 RMK AO2

TAF (pilot weather forecast)

Closest forecast is Cape Cod Coast Guard Air Station, 2.1 nm (3.9 km) ESE. Retrieved 2019/07/20 12:22 UTC (3 hours ago):

TAF KFMH 201120Z 2012/2112 27006KT P6SM SCT200 FM201700 23012KT P6SM FEW250 FM210500 24006KT P6SM FEW200